sensor_id;sensor_type;location;lat;lon;timestamp;P1;durP1;ratioP1;P2;durP2;ratioP2
4634;SDS011;2330;48.158;11.816;2023-11-22T00:01:03;10.97;;;9.97;;
4634;SDS011;2330;48.158;11.816;2023-11-22T00:03:32;11.70;;;9.20;;
4634;SDS011;2330;48.158;11.816;2023-11-22T00:05:59;10.53;;;9.60;;
4634;SDS011;2330;48.158;11.816;2023-11-22T00:08:25;11.57;;;9.47;;
4634;SDS011;2330;48.158;11.816;2023-11-22T00:10:52;10.93;;;9.93;;
4634;SDS011;2330;48.158;11.816;2023-11-22T00:13:19;12.30;;;10.00;;
4634;SDS011;2330;48.158;11.816;2023-11-22T00:15:46;12.97;;;9.37;;
4634;SDS011;2330;48.158;11.816;2023-11-22T00:18:13;12.20;;;9.80;;
4634;SDS011;2330;48.158;11.816;2023-11-22T00:20:40;14.23;;;9.27;;
4634;SDS011;2330;48.158;11.816;2023-11-22T00:23:06;9.87;;;8.87;;
4634;SDS011;2330;48.158;11.816;2023-11-22T00:25:34;11.20;;;10.20;;
4634;SDS011;2330;48.158;11.816;2023-11-22T00:28:01;11.93;;;10.20;;
4634;SDS011;2330;48.158;11.816;2023-11-22T00:30:28;9.90;;;9.00;;
4634;SDS011;2330;48.158;11.816;2023-11-22T00:32:55;13.80;;;9.77;;
4634;SDS011;2330;48.158;11.816;2023-11-22T00:35:23;11.00;;;9.47;;
4634;SDS011;2330;48.158;11.816;2023-11-22T00:37:50;10.73;;;9.47;;
4634;SDS011;2330;48.158;11.816;2023-11-22T00:40:16;11.17;;;9.53;;
4634;SDS011;2330;48.158;11.816;2023-11-22T00:42:43;9.73;;;8.93;;
4634;SDS011;2330;48.158;11.816;2023-11-22T00:45:10;8.70;;;7.97;;
4634;SDS011;2330;48.158;11.816;2023-11-22T00:47:37;10.73;;;9.40;;
4634;SDS011;2330;48.158;11.816;2023-11-22T00:50:05;14.33;;;9.13;;
4634;SDS011;2330;48.158;11.816;2023-11-22T00:52:32;9.97;;;8.97;;
4634;SDS011;2330;48.158;11.816;2023-11-22T00:54:59;16.53;;;8.07;;
4634;SDS011;2330;48.158;11.816;2023-11-22T00:57:26;9.30;;;8.50;;
4634;SDS011;2330;48.158;11.816;2023-11-22T00:59:53;10.90;;;9.10;;
4634;SDS011;2330;48.158;11.816;2023-11-22T01:02:20;10.63;;;9.60;;
4634;SDS011;2330;48.158;11.816;2023-11-22T01:04:47;9.93;;;9.13;;
4634;SDS011;2330;48.158;11.816;2023-11-22T01:07:13;10.20;;;9.20;;
4634;SDS011;2330;48.158;11.816;2023-11-22T01:09:40;14.10;;;9.30;;
4634;SDS011;2330;48.158;11.816;2023-11-22T01:12:07;9.80;;;8.83;;
4634;SDS011;2330;48.158;11.816;2023-11-22T01:14:35;9.80;;;8.90;;
4634;SDS011;2330;48.158;11.816;2023-11-22T01:17:02;10.97;;;9.60;;
4634;SDS011;2330;48.158;11.816;2023-11-22T01:19:29;10.80;;;9.80;;
4634;SDS011;2330;48.158;11.816;2023-11-22T01:21:56;10.03;;;9.10;;
4634;SDS011;2330;48.158;11.816;2023-11-22T01:24:23;12.60;;;9.50;;
4634;SDS011;2330;48.158;11.816;2023-11-22T01:26:51;10.10;;;9.20;;
4634;SDS011;2330;48.158;11.816;2023-11-22T01:29:17;10.23;;;9.23;;
4634;SDS011;2330;48.158;11.816;2023-11-22T01:31:45;10.80;;;9.17;;
4634;SDS011;2330;48.158;11.816;2023-11-22T01:34:11;9.13;;;8.33;;
4634;SDS011;2330;48.158;11.816;2023-11-22T01:36:41;9.70;;;8.80;;
4634;SDS011;2330;48.158;11.816;2023-11-22T01:39:13;10.03;;;8.67;;
4634;SDS011;2330;48.158;11.816;2023-11-22T01:41:40;9.23;;;8.40;;
4634;SDS011;2330;48.158;11.816;2023-11-22T01:44:08;7.90;;;7.20;;
4634;SDS011;2330;48.158;11.816;2023-11-22T01:46:35;6.87;;;6.37;;
4634;SDS011;2330;48.158;11.816;2023-11-22T01:49:03;5.90;;;5.40;;
4634;SDS011;2330;48.158;11.816;2023-11-22T01:51:30;5.40;;;5.00;;
4634;SDS011;2330;48.158;11.816;2023-11-22T01:53:57;4.57;;;4.27;;
4634;SDS011;2330;48.158;11.816;2023-11-22T01:56:25;4.80;;;4.50;;
4634;SDS011;2330;48.158;11.816;2023-11-22T01:58:53;5.00;;;4.60;;
4634;SDS011;2330;48.158;11.816;2023-11-22T02:01:24;4.53;;;3.90;;
4634;SDS011;2330;48.158;11.816;2023-11-22T02:03:55;4.47;;;4.17;;
4634;SDS011;2330;48.158;11.816;2023-11-22T02:06:22;4.10;;;3.80;;
4634;SDS011;2330;48.158;11.816;2023-11-22T02:08:49;3.70;;;3.50;;
4634;SDS011;2330;48.158;11.816;2023-11-22T02:11:17;4.10;;;3.80;;
4634;SDS011;2330;48.158;11.816;2023-11-22T02:13:51;3.65;;;3.45;;
4634;SDS011;2330;48.158;11.816;2023-11-22T02:16:18;3.50;;;3.30;;
4634;SDS011;2330;48.158;11.816;2023-11-22T02:18:46;3.28;;;3.08;;
4634;SDS011;2330;48.158;11.816;2023-11-22T02:21:16;3.28;;;3.08;;
4634;SDS011;2330;48.158;11.816;2023-11-22T02:23:43;3.60;;;3.40;;
4634;SDS011;2330;48.158;11.816;2023-11-22T02:26:10;3.10;;;2.90;;
4634;SDS011;2330;48.158;11.816;2023-11-22T02:28:37;4.00;;;3.70;;
4634;SDS011;2330;48.158;11.816;2023-11-22T02:31:04;3.53;;;3.33;;
4634;SDS011;2330;48.158;11.816;2023-11-22T02:33:31;3.72;;;3.53;;
4634;SDS011;2330;48.158;11.816;2023-11-22T02:35:57;4.18;;;3.88;;
4634;SDS011;2330;48.158;11.816;2023-11-22T02:38:25;3.72;;;3.53;;
4634;SDS011;2330;48.158;11.816;2023-11-22T02:40:52;4.90;;;4.60;;
4634;SDS011;2330;48.158;11.816;2023-11-22T02:43:20;4.20;;;4.00;;
4634;SDS011;2330;48.158;11.816;2023-11-22T02:45:49;5.13;;;4.82;;
4634;SDS011;2330;48.158;11.816;2023-11-22T02:48:17;4.65;;;4.35;;
4634;SDS011;2330;48.158;11.816;2023-11-22T02:50:44;4.75;;;4.45;;
4634;SDS011;2330;48.158;11.816;2023-11-22T02:53:11;5.15;;;4.85;;
4634;SDS011;2330;48.158;11.816;2023-11-22T02:55:39;5.40;;;5.10;;
4634;SDS011;2330;48.158;11.816;2023-11-22T02:58:06;5.15;;;4.85;;
4634;SDS011;2330;48.158;11.816;2023-11-22T03:00:33;6.10;;;5.70;;
4634;SDS011;2330;48.158;11.816;2023-11-22T03:03:01;5.95;;;5.55;;
4634;SDS011;2330;48.158;11.816;2023-11-22T03:05:30;5.72;;;5.32;;
4634;SDS011;2330;48.158;11.816;2023-11-22T03:07:57;6.38;;;5.88;;
4634;SDS011;2330;48.158;11.816;2023-11-22T03:10:24;5.82;;;5.43;;
4634;SDS011;2330;48.158;11.816;2023-11-22T03:12:51;5.00;;;4.70;;
4634;SDS011;2330;48.158;11.816;2023-11-22T03:15:18;5.53;;;5.13;;
4634;SDS011;2330;48.158;11.816;2023-11-22T03:17:45;5.50;;;5.10;;
4634;SDS011;2330;48.158;11.816;2023-11-22T03:20:11;4.70;;;4.40;;
4634;SDS011;2330;48.158;11.816;2023-11-22T03:22:38;5.15;;;4.85;;
4634;SDS011;2330;48.158;11.816;2023-11-22T03:25:05;4.80;;;4.40;;
4634;SDS011;2330;48.158;11.816;2023-11-22T03:27:36;5.10;;;4.80;;
4634;SDS011;2330;48.158;11.816;2023-11-22T03:30:04;5.20;;;4.80;;
4634;SDS011;2330;48.158;11.816;2023-11-22T03:32:34;5.50;;;5.10;;
4634;SDS011;2330;48.158;11.816;2023-11-22T03:35:04;5.15;;;4.85;;
4634;SDS011;2330;48.158;11.816;2023-11-22T03:37:32;5.40;;;5.07;;
4634;SDS011;2330;48.158;11.816;2023-11-22T03:39:59;4.82;;;4.53;;
4634;SDS011;2330;48.158;11.816;2023-11-22T03:42:26;4.57;;;4.28;;
4634;SDS011;2330;48.158;11.816;2023-11-22T03:44:54;4.18;;;3.92;;
4634;SDS011;2330;48.158;11.816;2023-11-22T03:47:21;4.85;;;4.55;;
4634;SDS011;2330;48.158;11.816;2023-11-22T03:49:48;4.88;;;4.57;;
4634;SDS011;2330;48.158;11.816;2023-11-22T03:52:15;4.97;;;4.57;;
4634;SDS011;2330;48.158;11.816;2023-11-22T03:54:42;6.45;;;4.60;;
4634;SDS011;2330;48.158;11.816;2023-11-22T03:57:09;4.70;;;4.40;;
4634;SDS011;2330;48.158;11.816;2023-11-22T03:59:35;4.80;;;4.50;;
4634;SDS011;2330;48.158;11.816;2023-11-22T04:02:02;5.13;;;4.72;;
4634;SDS011;2330;48.158;11.816;2023-11-22T04:04:30;4.57;;;4.28;;
4634;SDS011;2330;48.158;11.816;2023-11-22T04:06:57;5.55;;;5.15;;
4634;SDS011;2330;48.158;11.816;2023-11-22T04:09:24;5.40;;;5.10;;
4634;SDS011;2330;48.158;11.816;2023-11-22T04:11:50;5.00;;;4.70;;
4634;SDS011;2330;48.158;11.816;2023-11-22T04:14:17;4.85;;;4.55;;
4634;SDS011;2330;48.158;11.816;2023-11-22T04:16:47;4.88;;;4.57;;
4634;SDS011;2330;48.158;11.816;2023-11-22T04:19:14;4.05;;;3.75;;
4634;SDS011;2330;48.158;11.816;2023-11-22T04:21:41;4.80;;;4.50;;
4634;SDS011;2330;48.158;11.816;2023-11-22T04:24:08;4.18;;;3.90;;
4634;SDS011;2330;48.158;11.816;2023-11-22T04:26:35;4.38;;;4.07;;
4634;SDS011;2330;48.158;11.816;2023-11-22T04:29:02;4.55;;;4.25;;
4634;SDS011;2330;48.158;11.816;2023-11-22T04:31:30;4.25;;;3.95;;
4634;SDS011;2330;48.158;11.816;2023-11-22T04:33:57;4.97;;;4.68;;
4634;SDS011;2330;48.158;11.816;2023-11-22T04:36:26;4.40;;;4.10;;
4634;SDS011;2330;48.158;11.816;2023-11-22T04:38:53;4.68;;;4.38;;
4634;SDS011;2330;48.158;11.816;2023-11-22T04:41:20;4.88;;;4.50;;
4634;SDS011;2330;48.158;11.816;2023-11-22T04:43:47;4.80;;;4.50;;
4634;SDS011;2330;48.158;11.816;2023-11-22T04:46:14;5.07;;;4.57;;
4634;SDS011;2330;48.158;11.816;2023-11-22T04:48:40;4.32;;;4.03;;
4634;SDS011;2330;48.158;11.816;2023-11-22T04:51:11;4.65;;;4.35;;
4634;SDS011;2330;48.158;11.816;2023-11-22T04:53:38;4.90;;;4.50;;
4634;SDS011;2330;48.158;11.816;2023-11-22T04:56:05;5.25;;;3.80;;
4634;SDS011;2330;48.158;11.816;2023-11-22T04:58:32;4.80;;;4.50;;
4634;SDS011;2330;48.158;11.816;2023-11-22T05:01:00;4.25;;;4.05;;
4634;SDS011;2330;48.158;11.816;2023-11-22T05:03:28;4.50;;;4.20;;
4634;SDS011;2330;48.158;11.816;2023-11-22T05:05:55;4.15;;;3.95;;
4634;SDS011;2330;48.158;11.816;2023-11-22T05:08:22;4.88;;;4.57;;
4634;SDS011;2330;48.158;11.816;2023-11-22T05:10:48;4.80;;;4.50;;
4634;SDS011;2330;48.158;11.816;2023-11-22T05:13:18;4.80;;;4.50;;
4634;SDS011;2330;48.158;11.816;2023-11-22T05:15:44;4.25;;;3.95;;
4634;SDS011;2330;48.158;11.816;2023-11-22T05:18:11;4.03;;;3.80;;
4634;SDS011;2330;48.158;11.816;2023-11-22T05:20:38;4.60;;;4.30;;
4634;SDS011;2330;48.158;11.816;2023-11-22T05:23:05;4.10;;;3.80;;
4634;SDS011;2330;48.158;11.816;2023-11-22T05:25:32;4.75;;;4.45;;
4634;SDS011;2330;48.158;11.816;2023-11-22T05:27:58;4.65;;;4.35;;
4634;SDS011;2330;48.158;11.816;2023-11-22T05:30:25;4.65;;;4.25;;
4634;SDS011;2330;48.158;11.816;2023-11-22T05:32:52;4.13;;;3.92;;
4634;SDS011;2330;48.158;11.816;2023-11-22T05:35:19;4.53;;;4.22;;
4634;SDS011;2330;48.158;11.816;2023-11-22T05:37:47;5.22;;;4.93;;
4634;SDS011;2330;48.158;11.816;2023-11-22T05:40:14;5.57;;;4.80;;
4634;SDS011;2330;48.158;11.816;2023-11-22T05:42:42;4.70;;;4.40;;
4634;SDS011;2330;48.158;11.816;2023-11-22T05:45:09;5.43;;;4.93;;
4634;SDS011;2330;48.158;11.816;2023-11-22T05:47:36;5.20;;;4.90;;
4634;SDS011;2330;48.158;11.816;2023-11-22T05:50:04;6.28;;;5.68;;
4634;SDS011;2330;48.158;11.816;2023-11-22T05:52:32;5.47;;;5.07;;
4634;SDS011;2330;48.158;11.816;2023-11-22T05:54:59;5.47;;;5.07;;
4634;SDS011;2330;48.158;11.816;2023-11-22T05:57:30;5.35;;;4.90;;
4634;SDS011;2330;48.158;11.816;2023-11-22T05:59:57;5.88;;;5.47;;
4634;SDS011;2330;48.158;11.816;2023-11-22T06:02:24;6.10;;;5.70;;
4634;SDS011;2330;48.158;11.816;2023-11-22T06:04:51;6.30;;;5.80;;
4634;SDS011;2330;48.158;11.816;2023-11-22T06:07:17;5.85;;;5.45;;
4634;SDS011;2330;48.158;11.816;2023-11-22T06:09:44;5.38;;;4.93;;
4634;SDS011;2330;48.158;11.816;2023-11-22T06:12:11;5.68;;;5.18;;
4634;SDS011;2330;48.158;11.816;2023-11-22T06:14:38;5.45;;;5.05;;
4634;SDS011;2330;48.158;11.816;2023-11-22T06:17:05;6.20;;;5.43;;
4634;SDS011;2330;48.158;11.816;2023-11-22T06:19:32;5.25;;;4.95;;
4634;SDS011;2330;48.158;11.816;2023-11-22T06:21:59;6.22;;;5.72;;
4634;SDS011;2330;48.158;11.816;2023-11-22T06:24:28;5.70;;;5.30;;
4634;SDS011;2330;48.158;11.816;2023-11-22T06:26:54;5.85;;;5.35;;
4634;SDS011;2330;48.158;11.816;2023-11-22T06:29:21;5.05;;;4.65;;
4634;SDS011;2330;48.158;11.816;2023-11-22T06:31:48;5.22;;;4.82;;
4634;SDS011;2330;48.158;11.816;2023-11-22T06:34:15;4.82;;;4.45;;
4634;SDS011;2330;48.158;11.816;2023-11-22T06:36:42;5.10;;;4.80;;
4634;SDS011;2330;48.158;11.816;2023-11-22T06:39:09;5.45;;;5.00;;
4634;SDS011;2330;48.158;11.816;2023-11-22T06:41:42;5.57;;;4.80;;
4634;SDS011;2330;48.158;11.816;2023-11-22T06:44:09;5.03;;;4.63;;
4634;SDS011;2330;48.158;11.816;2023-11-22T06:46:36;5.13;;;4.82;;
4634;SDS011;2330;48.158;11.816;2023-11-22T06:49:03;4.47;;;4.28;;
4634;SDS011;2330;48.158;11.816;2023-11-22T06:51:31;4.88;;;4.47;;
4634;SDS011;2330;48.158;11.816;2023-11-22T06:53:58;4.68;;;4.35;;
4634;SDS011;2330;48.158;11.816;2023-11-22T06:56:27;4.72;;;4.43;;
4634;SDS011;2330;48.158;11.816;2023-11-22T06:58:54;4.40;;;4.20;;
4634;SDS011;2330;48.158;11.816;2023-11-22T07:01:24;4.88;;;4.43;;
4634;SDS011;2330;48.158;11.816;2023-11-22T07:03:54;5.05;;;4.75;;
4634;SDS011;2330;48.158;11.816;2023-11-22T07:06:21;4.90;;;4.55;;
4634;SDS011;2330;48.158;11.816;2023-11-22T07:08:48;4.32;;;4.13;;
4634;SDS011;2330;48.158;11.816;2023-11-22T07:11:22;5.22;;;4.80;;
4634;SDS011;2330;48.158;11.816;2023-11-22T07:13:50;5.00;;;4.70;;
4634;SDS011;2330;48.158;11.816;2023-11-22T07:16:18;4.75;;;4.45;;
4634;SDS011;2330;48.158;11.816;2023-11-22T07:18:47;4.40;;;4.10;;
4634;SDS011;2330;48.158;11.816;2023-11-22T07:21:14;4.30;;;4.03;;
4634;SDS011;2330;48.158;11.816;2023-11-22T07:23:41;4.50;;;4.20;;
4634;SDS011;2330;48.158;11.816;2023-11-22T07:26:07;5.35;;;4.80;;
4634;SDS011;2330;48.158;11.816;2023-11-22T07:28:34;4.43;;;4.17;;
4634;SDS011;2330;48.158;11.816;2023-11-22T07:31:06;4.75;;;4.45;;
4634;SDS011;2330;48.158;11.816;2023-11-22T07:33:34;4.40;;;4.10;;
4634;SDS011;2330;48.158;11.816;2023-11-22T07:36:01;5.55;;;5.15;;
4634;SDS011;2330;48.158;11.816;2023-11-22T07:38:29;4.93;;;4.63;;
4634;SDS011;2330;48.158;11.816;2023-11-22T07:40:58;4.25;;;4.00;;
4634;SDS011;2330;48.158;11.816;2023-11-22T07:43:25;4.32;;;4.05;;
4634;SDS011;2330;48.158;11.816;2023-11-22T07:45:51;5.03;;;4.13;;
4634;SDS011;2330;48.158;11.816;2023-11-22T07:48:18;4.68;;;4.40;;
4634;SDS011;2330;48.158;11.816;2023-11-22T07:50:45;5.03;;;4.72;;
4634;SDS011;2330;48.158;11.816;2023-11-22T07:53:15;4.50;;;4.20;;
4634;SDS011;2330;48.158;11.816;2023-11-22T07:55:44;4.65;;;4.35;;
4634;SDS011;2330;48.158;11.816;2023-11-22T07:58:11;4.63;;;4.32;;
4634;SDS011;2330;48.158;11.816;2023-11-22T08:00:37;4.40;;;4.10;;
4634;SDS011;2330;48.158;11.816;2023-11-22T08:03:04;3.88;;;3.67;;
4634;SDS011;2330;48.158;11.816;2023-11-22T08:05:33;4.32;;;4.03;;
4634;SDS011;2330;48.158;11.816;2023-11-22T08:08:03;4.30;;;4.00;;
4634;SDS011;2330;48.158;11.816;2023-11-22T08:10:35;5.03;;;4.72;;
4634;SDS011;2330;48.158;11.816;2023-11-22T08:13:02;4.35;;;4.05;;
4634;SDS011;2330;48.158;11.816;2023-11-22T08:15:29;4.25;;;3.95;;
4634;SDS011;2330;48.158;11.816;2023-11-22T08:17:58;3.85;;;3.55;;
4634;SDS011;2330;48.158;11.816;2023-11-22T08:20:26;4.35;;;4.15;;
4634;SDS011;2330;48.158;11.816;2023-11-22T08:22:54;4.53;;;4.22;;
4634;SDS011;2330;48.158;11.816;2023-11-22T08:25:20;3.55;;;3.35;;
4634;SDS011;2330;48.158;11.816;2023-11-22T08:27:47;4.25;;;3.97;;
4634;SDS011;2330;48.158;11.816;2023-11-22T08:30:15;4.03;;;3.83;;
4634;SDS011;2330;48.158;11.816;2023-11-22T08:32:42;4.65;;;4.25;;
4634;SDS011;2330;48.158;11.816;2023-11-22T08:35:10;4.55;;;4.25;;
4634;SDS011;2330;48.158;11.816;2023-11-22T08:37:39;4.78;;;4.43;;
4634;SDS011;2330;48.158;11.816;2023-11-22T08:40:09;4.28;;;3.97;;
4634;SDS011;2330;48.158;11.816;2023-11-22T08:42:42;4.32;;;4.10;;
4634;SDS011;2330;48.158;11.816;2023-11-22T08:45:10;4.80;;;4.50;;
4634;SDS011;2330;48.158;11.816;2023-11-22T08:47:41;4.95;;;4.65;;
4634;SDS011;2330;48.158;11.816;2023-11-22T08:50:08;4.82;;;4.53;;
4634;SDS011;2330;48.158;11.816;2023-11-22T08:52:38;5.30;;;5.00;;
4634;SDS011;2330;48.158;11.816;2023-11-22T08:55:08;5.85;;;5.45;;
4634;SDS011;2330;48.158;11.816;2023-11-22T08:57:36;5.63;;;5.22;;
4634;SDS011;2330;48.158;11.816;2023-11-22T09:00:03;6.60;;;6.10;;
4634;SDS011;2330;48.158;11.816;2023-11-22T09:02:36;5.60;;;5.20;;
4634;SDS011;2330;48.158;11.816;2023-11-22T09:05:04;5.93;;;5.50;;
4634;SDS011;2330;48.158;11.816;2023-11-22T09:07:35;5.10;;;4.80;;
4634;SDS011;2330;48.158;11.816;2023-11-22T09:10:03;5.43;;;5.00;;
4634;SDS011;2330;48.158;11.816;2023-11-22T09:12:37;6.10;;;5.60;;
4634;SDS011;2330;48.158;11.816;2023-11-22T09:15:09;5.65;;;5.30;;
4634;SDS011;2330;48.158;11.816;2023-11-22T09:17:39;6.00;;;5.38;;
4634;SDS011;2330;48.158;11.816;2023-11-22T09:20:13;5.78;;;5.38;;
4634;SDS011;2330;48.158;11.816;2023-11-22T09:22:48;5.88;;;5.47;;
4634;SDS011;2330;48.158;11.816;2023-11-22T09:25:16;5.65;;;5.25;;
4634;SDS011;2330;48.158;11.816;2023-11-22T09:27:46;5.20;;;4.90;;
4634;SDS011;2330;48.158;11.816;2023-11-22T09:30:19;5.82;;;5.47;;
4634;SDS011;2330;48.158;11.816;2023-11-22T09:33:00;5.80;;;5.40;;
4634;SDS011;2330;48.158;11.816;2023-11-22T09:35:29;5.30;;;5.00;;
4634;SDS011;2330;48.158;11.816;2023-11-22T09:38:00;5.38;;;4.97;;
4634;SDS011;2330;48.158;11.816;2023-11-22T09:40:28;5.03;;;4.72;;
4634;SDS011;2330;48.158;11.816;2023-11-22T09:42:55;5.07;;;4.43;;
4634;SDS011;2330;48.158;11.816;2023-11-22T09:45:24;4.72;;;4.43;;
4634;SDS011;2330;48.158;11.816;2023-11-22T09:47:52;4.82;;;4.53;;
4634;SDS011;2330;48.158;11.816;2023-11-22T09:50:21;5.70;;;5.30;;
4634;SDS011;2330;48.158;11.816;2023-11-22T09:52:59;4.93;;;4.63;;
4634;SDS011;2330;48.158;11.816;2023-11-22T09:55:28;5.85;;;5.45;;
4634;SDS011;2330;48.158;11.816;2023-11-22T09:57:58;5.60;;;5.20;;
4634;SDS011;2330;48.158;11.816;2023-11-22T10:00:29;5.40;;;5.00;;
4634;SDS011;2330;48.158;11.816;2023-11-22T10:02:57;5.75;;;5.43;;
4634;SDS011;2330;48.158;11.816;2023-11-22T10:05:24;5.75;;;5.35;;
4634;SDS011;2330;48.158;11.816;2023-11-22T10:07:55;5.60;;;5.20;;
4634;SDS011;2330;48.158;11.816;2023-11-22T10:10:22;4.93;;;4.63;;
4634;SDS011;2330;48.158;11.816;2023-11-22T10:12:53;4.95;;;4.65;;
4634;SDS011;2330;48.158;11.816;2023-11-22T10:15:24;4.30;;;4.05;;
4634;SDS011;2330;48.158;11.816;2023-11-22T10:17:55;5.13;;;4.78;;
4634;SDS011;2330;48.158;11.816;2023-11-22T10:20:24;4.47;;;4.25;;
4634;SDS011;2330;48.158;11.816;2023-11-22T10:23:01;4.50;;;4.20;;
4634;SDS011;2330;48.158;11.816;2023-11-22T10:25:28;4.80;;;4.50;;
4634;SDS011;2330;48.158;11.816;2023-11-22T10:27:55;4.30;;;4.00;;
4634;SDS011;2330;48.158;11.816;2023-11-22T10:30:22;4.50;;;4.20;;
4634;SDS011;2330;48.158;11.816;2023-11-22T10:32:49;4.00;;;3.72;;
4634;SDS011;2330;48.158;11.816;2023-11-22T10:35:16;3.50;;;3.30;;
4634;SDS011;2330;48.158;11.816;2023-11-22T10:37:43;2.83;;;2.70;;
4634;SDS011;2330;48.158;11.816;2023-11-22T10:40:11;2.83;;;2.63;;
4634;SDS011;2330;48.158;11.816;2023-11-22T10:42:42;3.50;;;3.30;;
4634;SDS011;2330;48.158;11.816;2023-11-22T10:45:10;3.40;;;3.20;;
4634;SDS011;2330;48.158;11.816;2023-11-22T10:47:37;3.50;;;3.30;;
4634;SDS011;2330;48.158;11.816;2023-11-22T10:50:05;3.90;;;3.60;;
4634;SDS011;2330;48.158;11.816;2023-11-22T10:52:35;3.45;;;3.15;;
4634;SDS011;2330;48.158;11.816;2023-11-22T10:55:03;3.45;;;3.25;;
4634;SDS011;2330;48.158;11.816;2023-11-22T10:57:32;3.53;;;3.33;;
4634;SDS011;2330;48.158;11.816;2023-11-22T11:00:10;3.80;;;3.60;;
4634;SDS011;2330;48.158;11.816;2023-11-22T11:02:44;4.60;;;4.30;;
4634;SDS011;2330;48.158;11.816;2023-11-22T11:05:24;3.83;;;3.63;;
4634;SDS011;2330;48.158;11.816;2023-11-22T11:08:00;2.50;;;2.40;;
4634;SDS011;2330;48.158;11.816;2023-11-22T11:10:29;2.90;;;2.70;;
4634;SDS011;2330;48.158;11.816;2023-11-22T11:12:58;3.22;;;3.08;;
4634;SDS011;2330;48.158;11.816;2023-11-22T11:15:25;3.25;;;3.05;;
4634;SDS011;2330;48.158;11.816;2023-11-22T11:17:53;3.40;;;3.20;;
4634;SDS011;2330;48.158;11.816;2023-11-22T11:20:22;3.00;;;2.80;;
4634;SDS011;2330;48.158;11.816;2023-11-22T11:22:50;2.97;;;2.88;;
4634;SDS011;2330;48.158;11.816;2023-11-22T11:25:20;2.50;;;2.40;;
4634;SDS011;2330;48.158;11.816;2023-11-22T11:27:56;2.45;;;2.35;;
4634;SDS011;2330;48.158;11.816;2023-11-22T11:33:10;2.15;;;2.05;;
4634;SDS011;2330;48.158;11.816;2023-11-22T11:35:57;2.65;;;2.55;;
4634;SDS011;2330;48.158;11.816;2023-11-22T11:38:30;2.72;;;2.63;;
4634;SDS011;2330;48.158;11.816;2023-11-22T11:41:11;2.75;;;2.55;;
4634;SDS011;2330;48.158;11.816;2023-11-22T11:43:43;3.85;;;3.10;;
4634;SDS011;2330;48.158;11.816;2023-11-22T11:46:14;3.05;;;2.90;;
4634;SDS011;2330;48.158;11.816;2023-11-22T11:48:49;2.60;;;2.50;;
4634;SDS011;2330;48.158;11.816;2023-11-22T11:51:18;2.30;;;2.20;;
4634;SDS011;2330;48.158;11.816;2023-11-22T11:53:46;2.97;;;2.78;;
4634;SDS011;2330;48.158;11.816;2023-11-22T11:56:13;2.77;;;2.67;;
4634;SDS011;2330;48.158;11.816;2023-11-22T11:58:44;3.35;;;2.75;;
4634;SDS011;2330;48.158;11.816;2023-11-22T12:01:18;2.83;;;2.63;;
4634;SDS011;2330;48.158;11.816;2023-11-22T12:03:49;2.20;;;2.10;;
4634;SDS011;2330;48.158;11.816;2023-11-22T12:06:19;2.53;;;2.35;;
4634;SDS011;2330;48.158;11.816;2023-11-22T12:08:47;2.10;;;2.00;;
4634;SDS011;2330;48.158;11.816;2023-11-22T12:11:14;2.50;;;2.30;;
4634;SDS011;2330;48.158;11.816;2023-11-22T12:13:42;2.45;;;2.35;;
4634;SDS011;2330;48.158;11.816;2023-11-22T12:16:16;2.60;;;2.50;;
4634;SDS011;2330;48.158;11.816;2023-11-22T12:18:45;2.58;;;2.47;;
4634;SDS011;2330;48.158;11.816;2023-11-22T12:21:15;2.60;;;2.45;;
4634;SDS011;2330;48.158;11.816;2023-11-22T12:23:42;3.45;;;3.25;;
4634;SDS011;2330;48.158;11.816;2023-11-22T12:26:12;3.15;;;2.95;;
4634;SDS011;2330;48.158;11.816;2023-11-22T12:28:41;2.80;;;2.70;;
4634;SDS011;2330;48.158;11.816;2023-11-22T12:31:22;3.20;;;3.00;;
4634;SDS011;2330;48.158;11.816;2023-11-22T12:33:51;3.50;;;3.20;;
4634;SDS011;2330;48.158;11.816;2023-11-22T12:36:19;2.50;;;2.40;;
4634;SDS011;2330;48.158;11.816;2023-11-22T12:38:46;3.35;;;3.15;;
4634;SDS011;2330;48.158;11.816;2023-11-22T12:41:14;3.03;;;2.90;;
4634;SDS011;2330;48.158;11.816;2023-11-22T12:43:41;3.28;;;3.08;;
4634;SDS011;2330;48.158;11.816;2023-11-22T12:46:16;3.13;;;2.83;;
4634;SDS011;2330;48.158;11.816;2023-11-22T12:48:44;2.95;;;2.85;;
4634;SDS011;2330;48.158;11.816;2023-11-22T12:51:18;2.83;;;2.72;;
4634;SDS011;2330;48.158;11.816;2023-11-22T12:53:52;3.38;;;3.15;;
4634;SDS011;2330;48.158;11.816;2023-11-22T12:56:19;3.10;;;2.90;;
4634;SDS011;2330;48.158;11.816;2023-11-22T12:58:46;2.92;;;2.83;;
4634;SDS011;2330;48.158;11.816;2023-11-22T13:01:14;2.55;;;2.45;;
4634;SDS011;2330;48.158;11.816;2023-11-22T13:03:40;3.15;;;2.95;;
4634;SDS011;2330;48.158;11.816;2023-11-22T13:06:08;2.90;;;2.80;;
4634;SDS011;2330;48.158;11.816;2023-11-22T13:08:35;2.92;;;2.72;;
4634;SDS011;2330;48.158;11.816;2023-11-22T13:11:02;3.10;;;2.90;;
4634;SDS011;2330;48.158;11.816;2023-11-22T13:13:29;3.38;;;3.17;;
4634;SDS011;2330;48.158;11.816;2023-11-22T13:15:57;2.70;;;2.60;;
4634;SDS011;2330;48.158;11.816;2023-11-22T13:18:24;3.47;;;3.28;;
4634;SDS011;2330;48.158;11.816;2023-11-22T13:20:53;3.00;;;2.80;;
4634;SDS011;2330;48.158;11.816;2023-11-22T13:23:20;2.60;;;2.50;;
4634;SDS011;2330;48.158;11.816;2023-11-22T13:25:47;2.55;;;2.45;;
4634;SDS011;2330;48.158;11.816;2023-11-22T13:28:15;3.17;;;3.08;;
4634;SDS011;2330;48.158;11.816;2023-11-22T13:30:43;3.08;;;2.88;;
4634;SDS011;2330;48.158;11.816;2023-11-22T13:33:10;2.72;;;2.63;;
4634;SDS011;2330;48.158;11.816;2023-11-22T13:35:38;5.38;;;2.83;;
4634;SDS011;2330;48.158;11.816;2023-11-22T13:38:05;3.00;;;2.80;;
4634;SDS011;2330;48.158;11.816;2023-11-22T13:40:37;3.28;;;3.08;;
4634;SDS011;2330;48.158;11.816;2023-11-22T13:43:11;2.97;;;2.78;;
4634;SDS011;2330;48.158;11.816;2023-11-22T13:45:43;3.95;;;3.60;;
4634;SDS011;2330;48.158;11.816;2023-11-22T13:48:11;6.55;;;4.45;;
4634;SDS011;2330;48.158;11.816;2023-11-22T13:50:39;29.08;;;14.27;;
4634;SDS011;2330;48.158;11.816;2023-11-22T13:53:06;46.75;;;19.52;;
4634;SDS011;2330;48.158;11.816;2023-11-22T13:55:35;4.13;;;3.83;;
4634;SDS011;2330;48.158;11.816;2023-11-22T13:58:03;3.28;;;3.05;;
4634;SDS011;2330;48.158;11.816;2023-11-22T14:00:31;2.95;;;2.75;;
4634;SDS011;2330;48.158;11.816;2023-11-22T14:03:02;3.08;;;2.88;;
4634;SDS011;2330;48.158;11.816;2023-11-22T14:05:35;3.53;;;3.28;;
4634;SDS011;2330;48.158;11.816;2023-11-22T14:08:05;38.33;;;28.17;;
4634;SDS011;2330;48.158;11.816;2023-11-22T14:10:35;9.52;;;8.05;;
4634;SDS011;2330;48.158;11.816;2023-11-22T14:13:02;7.45;;;6.82;;
4634;SDS011;2330;48.158;11.816;2023-11-22T14:15:30;3.55;;;3.35;;
4634;SDS011;2330;48.158;11.816;2023-11-22T14:17:58;2.70;;;2.60;;
4634;SDS011;2330;48.158;11.816;2023-11-22T14:20:25;2.85;;;2.75;;
4634;SDS011;2330;48.158;11.816;2023-11-22T14:22:52;3.05;;;2.85;;
4634;SDS011;2330;48.158;11.816;2023-11-22T14:25:19;2.80;;;2.67;;
4634;SDS011;2330;48.158;11.816;2023-11-22T14:27:46;3.23;;;3.07;;
4634;SDS011;2330;48.158;11.816;2023-11-22T14:30:19;3.25;;;2.97;;
4634;SDS011;2330;48.158;11.816;2023-11-22T14:32:48;3.30;;;3.10;;
4634;SDS011;2330;48.158;11.816;2023-11-22T14:35:17;2.78;;;2.67;;
4634;SDS011;2330;48.158;11.816;2023-11-22T14:37:44;3.05;;;2.80;;
4634;SDS011;2330;48.158;11.816;2023-11-22T14:40:11;2.95;;;2.75;;
4634;SDS011;2330;48.158;11.816;2023-11-22T14:42:42;2.85;;;2.75;;
4634;SDS011;2330;48.158;11.816;2023-11-22T14:45:10;2.92;;;2.83;;
4634;SDS011;2330;48.158;11.816;2023-11-22T14:47:40;3.25;;;2.95;;
4634;SDS011;2330;48.158;11.816;2023-11-22T14:50:08;3.47;;;3.28;;
4634;SDS011;2330;48.158;11.816;2023-11-22T14:52:40;3.60;;;3.40;;
4634;SDS011;2330;48.158;11.816;2023-11-22T14:55:07;3.40;;;3.20;;
4634;SDS011;2330;48.158;11.816;2023-11-22T14:57:37;3.47;;;3.27;;
4634;SDS011;2330;48.158;11.816;2023-11-22T15:00:05;3.50;;;3.30;;
4634;SDS011;2330;48.158;11.816;2023-11-22T15:02:36;6.00;;;5.60;;
4634;SDS011;2330;48.158;11.816;2023-11-22T15:05:03;5.30;;;4.90;;
4634;SDS011;2330;48.158;11.816;2023-11-22T15:07:37;5.40;;;3.45;;
4634;SDS011;2330;48.158;11.816;2023-11-22T15:10:09;3.73;;;3.47;;